sensor_id;sensor_type;location;lat;lon;timestamp;pressure;altitude;pressure_sealevel;temperature;humidity
65329;BME280;51941;52.210;5.158;2023-05-09T00:00:53;101741.88;;;14.95;100.00
65329;BME280;51941;52.210;5.158;2023-05-09T00:03:19;101733.31;;;14.93;100.00
65329;BME280;51941;52.210;5.158;2023-05-09T00:05:46;101732.75;;;14.91;100.00
65329;BME280;51941;52.210;5.158;2023-05-09T00:08:13;101724.19;;;14.89;100.00
65329;BME280;51941;52.210;5.158;2023-05-09T00:10:39;101723.94;;;14.90;100.00
65329;BME280;51941;52.210;5.158;2023-05-09T00:13:06;101722.31;;;14.89;100.00
65329;BME280;51941;52.210;5.158;2023-05-09T00:15:33;101715.16;;;14.90;100.00
65329;BME280;51941;52.210;5.158;2023-05-09T00:18:01;101714.66;;;14.93;100.00
65329;BME280;51941;52.210;5.158;2023-05-09T00:20:28;101714.56;;;14.88;100.00
65329;BME280;51941;52.210;5.158;2023-05-09T00:22:55;101716.41;;;14.87;100.00
65329;BME280;51941;52.210;5.158;2023-05-09T00:25:22;101713.53;;;14.89;100.00
65329;BME280;51941;52.210;5.158;2023-05-09T00:27:49;101716.75;;;14.91;100.00
65329;BME280;51941;52.210;5.158;2023-05-09T00:30:16;101710.84;;;14.89;100.00
65329;BME280;51941;52.210;5.158;2023-05-09T00:32:42;101704.94;;;14.87;100.00
65329;BME280;51941;52.210;5.158;2023-05-09T00:35:10;101695.81;;;14.83;100.00
65329;BME280;51941;52.210;5.158;2023-05-09T00:37:37;101701.69;;;14.85;100.00
65329;BME280;51941;52.210;5.158;2023-05-09T00:40:05;101704.13;;;14.86;100.00
65329;BME280;51941;52.210;5.158;2023-05-09T00:42:33;101695.81;;;14.83;100.00
65329;BME280;51941;52.210;5.158;2023-05-09T00:45:00;101700.06;;;14.84;100.00
65329;BME280;51941;52.210;5.158;2023-05-09T00:47:27;101694.75;;;14.84;100.00
65329;BME280;51941;52.210;5.158;2023-05-09T00:49:55;101687.81;;;14.83;100.00
65329;BME280;51941;52.210;5.158;2023-05-09T00:52:25;101693.16;;;14.83;100.00
65329;BME280;51941;52.210;5.158;2023-05-09T00:54:52;101694.44;;;14.80;100.00
65329;BME280;51941;52.210;5.158;2023-05-09T00:57:19;101691.19;;;14.78;100.00
65329;BME280;51941;52.210;5.158;2023-05-09T00:59:45;101682.38;;;14.77;100.00
65329;BME280;51941;52.210;5.158;2023-05-09T01:02:12;101673.56;;;14.77;100.00
65329;BME280;51941;52.210;5.158;2023-05-09T01:04:39;101685.50;;;14.74;100.00
65329;BME280;51941;52.210;5.158;2023-05-09T01:07:11;101677.50;;;14.74;100.00
65329;BME280;51941;52.210;5.158;2023-05-09T01:09:47;101670.25;;;14.70;100.00
65329;BME280;51941;52.210;5.158;2023-05-09T01:12:22;101662.16;;;14.65;100.00
65329;BME280;51941;52.210;5.158;2023-05-09T01:14:58;101659.59;;;14.70;100.00
65329;BME280;51941;52.210;5.158;2023-05-09T01:17:32;101657.72;;;14.70;100.00
65329;BME280;51941;52.210;5.158;2023-05-09T01:20:09;101656.34;;;14.68;100.00
65329;BME280;51941;52.210;5.158;2023-05-09T01:22:42;101654.72;;;14.67;100.00
65329;BME280;51941;52.210;5.158;2023-05-09T01:25:37;101656.84;;;14.65;100.00
65329;BME280;51941;52.210;5.158;2023-05-09T01:28:31;101646.41;;;14.63;100.00
65329;BME280;51941;52.210;5.158;2023-05-09T01:31:02;101642.44;;;14.66;100.00
65329;BME280;51941;52.210;5.158;2023-05-09T01:33:29;101642.22;;;14.67;100.00
65329;BME280;51941;52.210;5.158;2023-05-09T01:36:03;101643.25;;;14.66;100.00
65329;BME280;51941;52.210;5.158;2023-05-09T01:38:31;101632.34;;;14.68;100.00
65329;BME280;51941;52.210;5.158;2023-05-09T01:40:59;101640.13;;;14.69;100.00
65329;BME280;51941;52.210;5.158;2023-05-09T01:43:27;101630.19;;;14.65;100.00
65329;BME280;51941;52.210;5.158;2023-05-09T01:45:56;101630.72;;;14.67;100.00
65329;BME280;51941;52.210;5.158;2023-05-09T01:48:26;101624.88;;;14.65;100.00
65329;BME280;51941;52.210;5.158;2023-05-09T01:50:54;101623.00;;;14.65;100.00
65329;BME280;51941;52.210;5.158;2023-05-09T01:53:23;101618.72;;;14.64;100.00
65329;BME280;51941;52.210;5.158;2023-05-09T01:55:51;101617.81;;;14.59;100.00
65329;BME280;51941;52.210;5.158;2023-05-09T01:58:19;101623.34;;;14.57;100.00
65329;BME280;51941;52.210;5.158;2023-05-09T02:00:47;101618.03;;;14.57;100.00
65329;BME280;51941;52.210;5.158;2023-05-09T02:03:14;101616.19;;;14.58;100.00
65329;BME280;51941;52.210;5.158;2023-05-09T02:05:43;101615.47;;;14.62;100.00
65329;BME280;51941;52.210;5.158;2023-05-09T02:08:11;101601.34;;;14.62;100.00
65329;BME280;51941;52.210;5.158;2023-05-09T02:10:39;101601.25;;;14.57;100.00
65329;BME280;51941;52.210;5.158;2023-05-09T02:13:06;101604.97;;;14.56;100.00
65329;BME280;51941;52.210;5.158;2023-05-09T02:15:33;101605.19;;;14.54;100.00
65329;BME280;51941;52.210;5.158;2023-05-09T02:18:00;101598.47;;;14.52;100.00
65329;BME280;51941;52.210;5.158;2023-05-09T02:20:26;101598.91;;;14.49;100.00
65329;BME280;51941;52.210;5.158;2023-05-09T02:22:56;101594.41;;;14.49;100.00
65329;BME280;51941;52.210;5.158;2023-05-09T02:25:23;101593.59;;;14.49;100.00
65329;BME280;51941;52.210;5.158;2023-05-09T02:27:50;101593.59;;;14.49;100.00
65329;BME280;51941;52.210;5.158;2023-05-09T02:30:20;101595.44;;;14.48;100.00
65329;BME280;51941;52.210;5.158;2023-05-09T02:32:51;101592.22;;;14.46;100.00
65329;BME280;51941;52.210;5.158;2023-05-09T02:35:20;101591.44;;;14.46;100.00
65329;BME280;51941;52.210;5.158;2023-05-09T02:37:47;101596.97;;;14.44;100.00
65329;BME280;51941;52.210;5.158;2023-05-09T02:40:16;101601.03;;;14.47;100.00
65329;BME280;51941;52.210;5.158;2023-05-09T02:42:43;101601.03;;;14.47;100.00
65329;BME280;51941;52.210;5.158;2023-05-09T02:45:10;101596.53;;;14.47;100.00
65329;BME280;51941;52.210;5.158;2023-05-09T02:47:37;101597.34;;;14.48;100.00
65329;BME280;51941;52.210;5.158;2023-05-09T02:50:05;101590.38;;;14.47;100.00
65329;BME280;51941;52.210;5.158;2023-05-09T02:52:34;101582.03;;;14.43;100.00
65329;BME280;51941;52.210;5.158;2023-05-09T02:55:01;101586.31;;;14.44;100.00
65329;BME280;51941;52.210;5.158;2023-05-09T02:57:30;101575.91;;;14.42;100.00
65329;BME280;51941;52.210;5.158;2023-05-09T02:59:57;101574.06;;;14.43;100.00
65329;BME280;51941;52.210;5.158;2023-05-09T03:02:25;101563.06;;;14.39;100.00
65329;BME280;51941;52.210;5.158;2023-05-09T03:04:52;101560.16;;;14.41;100.00
65329;BME280;51941;52.210;5.158;2023-05-09T03:07:19;101558.88;;;14.43;100.00
65329;BME280;51941;52.210;5.158;2023-05-09T03:09:46;101553.78;;;14.42;100.00
65329;BME280;51941;52.210;5.158;2023-05-09T03:12:13;101549.28;;;14.42;100.00
65329;BME280;51941;52.210;5.158;2023-05-09T03:14:41;101553.31;;;14.45;100.00
65329;BME280;51941;52.210;5.158;2023-05-09T03:17:07;101552.97;;;14.41;100.00
65329;BME280;51941;52.210;5.158;2023-05-09T03:19:35;101556.00;;;14.45;100.00
65329;BME280;51941;52.210;5.158;2023-05-09T03:22:02;101544.28;;;14.46;100.00
65329;BME280;51941;52.210;5.158;2023-05-09T03:24:32;101538.16;;;14.46;100.00
65329;BME280;51941;52.210;5.158;2023-05-09T03:26:59;101540.56;;;14.47;100.00
65329;BME280;51941;52.210;5.158;2023-05-09T03:29:25;101538.47;;;14.49;100.00
65329;BME280;51941;52.210;5.158;2023-05-09T03:31:54;101528.84;;;14.48;100.00
65329;BME280;51941;52.210;5.158;2023-05-09T03:34:20;101531.44;;;14.43;100.00
65329;BME280;51941;52.210;5.158;2023-05-09T03:36:47;101531.09;;;14.39;100.00
65329;BME280;51941;52.210;5.158;2023-05-09T03:39:14;101522.78;;;14.36;100.00
65329;BME280;51941;52.210;5.158;2023-05-09T03:41:44;101515.38;;;14.38;100.00
65329;BME280;51941;52.210;5.158;2023-05-09T03:44:11;101513.22;;;14.52;100.00
65329;BME280;51941;52.210;5.158;2023-05-09T03:46:38;101508.13;;;14.50;100.00
65329;BME280;51941;52.210;5.158;2023-05-09T03:49:06;101505.81;;;14.54;100.00
65329;BME280;51941;52.210;5.158;2023-05-09T03:51:34;101508.00;;;14.57;100.00
65329;BME280;51941;52.210;5.158;2023-05-09T03:54:03;101502.41;;;14.58;100.00
65329;BME280;51941;52.210;5.158;2023-05-09T03:56:30;101496.19;;;14.53;100.00
65329;BME280;51941;52.210;5.158;2023-05-09T03:58:57;101504.31;;;14.29;100.00
65329;BME280;51941;52.210;5.158;2023-05-09T04:01:25;101491.25;;;14.16;100.00
65329;BME280;51941;52.210;5.158;2023-05-09T04:03:53;101500.94;;;14.22;100.00
65329;BME280;51941;52.210;5.158;2023-05-09T04:06:23;101498.81;;;14.36;100.00
65329;BME280;51941;52.210;5.158;2023-05-09T04:08:50;101499.91;;;14.23;100.00
65329;BME280;51941;52.210;5.158;2023-05-09T04:11:17;101498.28;;;14.22;100.00
65329;BME280;51941;52.210;5.158;2023-05-09T04:13:46;101482.22;;;14.17;100.00
65329;BME280;51941;52.210;5.158;2023-05-09T04:16:23;101487.91;;;14.21;100.00
65329;BME280;51941;52.210;5.158;2023-05-09T04:18:50;101493.22;;;14.21;100.00
65329;BME280;51941;52.210;5.158;2023-05-09T04:21:17;101491.84;;;14.18;100.00
65329;BME280;51941;52.210;5.158;2023-05-09T04:23:48;101491.03;;;14.18;100.00
65329;BME280;51941;52.210;5.158;2023-05-09T04:26:19;101490.69;;;14.14;100.00
65329;BME280;51941;52.210;5.158;2023-05-09T04:28:48;101489.06;;;14.13;100.00
65329;BME280;51941;52.210;5.158;2023-05-09T04:31:16;101482.69;;;14.14;100.00
65329;BME280;51941;52.210;5.158;2023-05-09T04:33:46;101482.16;;;14.12;100.00
65329;BME280;51941;52.210;5.158;2023-05-09T04:36:13;101478.69;;;14.12;100.00
65329;BME280;51941;52.210;5.158;2023-05-09T04:38:41;101479.72;;;14.11;100.00
65329;BME280;51941;52.210;5.158;2023-05-09T04:41:12;101471.59;;;14.17;100.00
65329;BME280;51941;52.210;5.158;2023-05-09T04:43:39;101475.88;;;14.18;100.00
65329;BME280;51941;52.210;5.158;2023-05-09T04:46:06;101470.06;;;14.21;100.00
65329;BME280;51941;52.210;5.158;2023-05-09T04:48:34;101472.81;;;14.26;100.00
65329;BME280;51941;52.210;5.158;2023-05-09T04:51:01;101464.34;;;14.29;100.00
65329;BME280;51941;52.210;5.158;2023-05-09T04:53:28;101456.09;;;14.31;100.00
65329;BME280;51941;52.210;5.158;2023-05-09T04:55:55;101460.16;;;14.33;100.00
65329;BME280;51941;52.210;5.158;2023-05-09T04:58:27;101452.50;;;14.37;100.00
65329;BME280;51941;52.210;5.158;2023-05-09T05:00:55;101455.75;;;14.39;100.00
65329;BME280;51941;52.210;5.158;2023-05-09T05:03:22;101458.13;;;14.40;100.00
65329;BME280;51941;52.210;5.158;2023-05-09T05:05:49;101447.81;;;14.44;100.00
65329;BME280;51941;52.210;5.158;2023-05-09T05:08:16;101445.72;;;14.46;100.00
65329;BME280;51941;52.210;5.158;2023-05-09T05:10:44;101444.75;;;14.52;100.00
65329;BME280;51941;52.210;5.158;2023-05-09T05:13:14;101435.28;;;14.56;100.00
65329;BME280;51941;52.210;5.158;2023-05-09T05:15:46;101434.78;;;14.59;100.00
65329;BME280;51941;52.210;5.158;2023-05-09T05:18:13;101424.44;;;14.63;100.00
65329;BME280;51941;52.210;5.158;2023-05-09T05:20:40;101436.22;;;14.67;100.00
65329;BME280;51941;52.210;5.158;2023-05-09T05:23:07;101428.88;;;14.74;100.00
65329;BME280;51941;52.210;5.158;2023-05-09T05:25:34;101433.00;;;14.82;100.00
65329;BME280;51941;52.210;5.158;2023-05-09T05:28:01;101422.22;;;14.93;100.00
65329;BME280;51941;52.210;5.158;2023-05-09T05:30:28;101417.16;;;14.92;100.00
65329;BME280;51941;52.210;5.158;2023-05-09T05:32:56;101408.59;;;14.90;100.00
65329;BME280;51941;52.210;5.158;2023-05-09T05:35:24;101413.25;;;14.99;100.00
65329;BME280;51941;52.210;5.158;2023-05-09T05:37:53;101415.94;;;14.99;100.00
65329;BME280;51941;52.210;5.158;2023-05-09T05:40:21;101414.13;;;15.05;100.00
65329;BME280;51941;52.210;5.158;2023-05-09T05:42:49;101413.66;;;15.08;100.00
65329;BME280;51941;52.210;5.158;2023-05-09T05:45:17;101407.00;;;15.10;100.00
65329;BME280;51941;52.210;5.158;2023-05-09T05:47:48;101404.59;;;15.09;100.00
65329;BME280;51941;52.210;5.158;2023-05-09T05:50:17;101402.47;;;15.11;100.00
65329;BME280;51941;52.210;5.158;2023-05-09T05:52:43;101397.22;;;15.16;100.00
65329;BME280;51941;52.210;5.158;2023-05-09T05:55:13;101394.56;;;15.16;100.00
65329;BME280;51941;52.210;5.158;2023-05-09T05:57:41;101391.13;;;15.21;100.00
65329;BME280;51941;52.210;5.158;2023-05-09T06:00:12;101395.19;;;15.23;100.00
65329;BME280;51941;52.210;5.158;2023-05-09T06:02:42;101392.50;;;15.23;100.00
65329;BME280;51941;52.210;5.158;2023-05-09T06:05:13;101390.66;;;15.24;100.00
65329;BME280;51941;52.210;5.158;2023-05-09T06:07:41;101388.22;;;15.22;100.00
65329;BME280;51941;52.210;5.158;2023-05-09T06:10:09;101382.09;;;15.22;100.00
65329;BME280;51941;52.210;5.158;2023-05-09T06:12:36;101374.88;;;15.22;100.00
65329;BME280;51941;52.210;5.158;2023-05-09T06:15:03;101378.16;;;15.29;100.00
65329;BME280;51941;52.210;5.158;2023-05-09T06:17:33;101378.59;;;15.21;100.00
65329;BME280;51941;52.210;5.158;2023-05-09T06:20:00;101365.78;;;15.18;100.00
65329;BME280;51941;52.210;5.158;2023-05-09T06:22:27;101370.31;;;15.17;100.00
65329;BME280;51941;52.210;5.158;2023-05-09T06:24:55;101366.84;;;15.17;100.00
65329;BME280;51941;52.210;5.158;2023-05-09T06:27:21;101368.13;;;15.14;100.00
65329;BME280;51941;52.210;5.158;2023-05-09T06:29:48;101367.81;;;15.11;100.00
65329;BME280;51941;52.210;5.158;2023-05-09T06:32:17;101364.09;;;15.12;100.00
65329;BME280;51941;52.210;5.158;2023-05-09T06:34:43;101355.00;;;15.08;100.00
65329;BME280;51941;52.210;5.158;2023-05-09T06:37:10;101365.94;;;15.11;100.00
65329;BME280;51941;52.210;5.158;2023-05-09T06:39:37;101359.81;;;15.11;100.00
65329;BME280;51941;52.210;5.158;2023-05-09T06:42:05;101356.41;;;15.15;100.00
65329;BME280;51941;52.210;5.158;2023-05-09T06:44:36;101349.22;;;15.16;100.00
65329;BME280;51941;52.210;5.158;2023-05-09T06:47:03;101354.81;;;15.14;100.00
65329;BME280;51941;52.210;5.158;2023-05-09T06:49:29;101351.31;;;15.14;100.00
65329;BME280;51941;52.210;5.158;2023-05-09T06:51:56;101342.75;;;15.12;100.00
65329;BME280;51941;52.210;5.158;2023-05-09T06:54:23;101349.66;;;15.08;100.00
65329;BME280;51941;52.210;5.158;2023-05-09T06:56:49;101342.75;;;15.12;100.00
65329;BME280;51941;52.210;5.158;2023-05-09T06:59:17;101345.50;;;15.17;100.00
65329;BME280;51941;52.210;5.158;2023-05-09T07:01:44;101343.38;;;15.19;100.00
65329;BME280;51941;52.210;5.158;2023-05-09T07:04:11;101346.38;;;15.23;100.00
65329;BME280;51941;52.210;5.158;2023-05-09T07:06:37;101342.88;;;15.22;100.00
65329;BME280;51941;52.210;5.158;2023-05-09T07:09:04;101343.63;;;15.39;100.00
65329;BME280;51941;52.210;5.158;2023-05-09T07:11:33;101342.06;;;15.43;100.00
65329;BME280;51941;52.210;5.158;2023-05-09T07:14:00;101333.56;;;15.46;100.00
65329;BME280;51941;52.210;5.158;2023-05-09T07:16:28;101338.03;;;15.41;100.00
65329;BME280;51941;52.210;5.158;2023-05-09T07:18:55;101327.69;;;15.44;100.00
65329;BME280;51941;52.210;5.158;2023-05-09T07:21:21;101331.44;;;15.48;100.00
65329;BME280;51941;52.210;5.158;2023-05-09T07:23:48;101329.53;;;15.44;100.00
65329;BME280;51941;52.210;5.158;2023-05-09T07:26:14;101318.59;;;15.45;100.00
65329;BME280;51941;52.210;5.158;2023-05-09T07:28:41;101320.28;;;15.51;100.00
65329;BME280;51941;52.210;5.158;2023-05-09T07:31:08;101317.91;;;15.55;100.00
65329;BME280;51941;52.210;5.158;2023-05-09T07:33:36;101328.97;;;15.64;100.00
65329;BME280;51941;52.210;5.158;2023-05-09T07:36:03;101321.50;;;15.66;100.00
65329;BME280;51941;52.210;5.158;2023-05-09T07:38:30;101320.69;;;15.65;100.00
65329;BME280;51941;52.210;5.158;2023-05-09T07:40:57;101316.09;;;15.61;100.00
65329;BME280;51941;52.210;5.158;2023-05-09T07:43:23;101310.03;;;15.65;100.00
65329;BME280;51941;52.210;5.158;2023-05-09T07:45:50;101303.63;;;15.66;100.00
65329;BME280;51941;52.210;5.158;2023-05-09T07:48:17;101303.38;;;15.68;100.00
65329;BME280;51941;52.210;5.158;2023-05-09T07:50:45;101307.47;;;15.75;100.00
65329;BME280;51941;52.210;5.158;2023-05-09T07:53:11;101307.47;;;15.75;100.00
65329;BME280;51941;52.210;5.158;2023-05-09T07:55:38;101300.03;;;15.82;100.00
65329;BME280;51941;52.210;5.158;2023-05-09T07:58:05;101290.16;;;15.83;100.00
65329;BME280;51941;52.210;5.158;2023-05-09T08:00:31;101294.75;;;15.87;100.00
65329;BME280;51941;52.210;5.158;2023-05-09T08:02:58;101288.66;;;15.92;100.00
65329;BME280;51941;52.210;5.158;2023-05-09T08:05:25;101279.88;;;15.97;100.00
65329;BME280;51941;52.210;5.158;2023-05-09T08:07:53;101279.34;;;16.00;100.00
65329;BME280;51941;52.210;5.158;2023-05-09T08:10:20;101277.56;;;16.10;100.00
65329;BME280;51941;52.210;5.158;2023-05-09T08:12:47;101266.09;;;16.10;100.00
65329;BME280;51941;52.210;5.158;2023-05-09T08:15:14;101267.78;;;16.21;100.00
65329;BME280;51941;52.210;5.158;2023-05-09T08:17:41;101261.06;;;16.18;100.00
65329;BME280;51941;52.210;5.158;2023-05-09T08:20:08;101261.91;;;16.24;100.00
65329;BME280;51941;52.210;5.158;2023-05-09T08:22:37;101262.97;;;16.23;100.00
65329;BME280;51941;52.210;5.158;2023-05-09T08:25:06;101249.94;;;16.32;100.00
65329;BME280;51941;52.210;5.158;2023-05-09T08:27:33;101253.13;;;16.34;100.00
65329;BME280;51941;52.210;5.158;2023-05-09T08:30:00;101245.66;;;16.30;100.00
65329;BME280;51941;52.210;5.158;2023-05-09T08:32:26;101237.06;;;16.23;100.00
65329;BME280;51941;52.210;5.158;2023-05-09T08:34:53;101235.41;;;16.17;100.00
65329;BME280;51941;52.210;5.158;2023-05-09T08:37:20;101234.50;;;15.97;100.00
65329;BME280;51941;52.210;5.158;2023-05-09T08:39:46;101228.44;;;16.06;100.00
65329;BME280;51941;52.210;5.158;2023-05-09T08:42:15;101234.84;;;16.10;100.00
65329;BME280;51941;52.210;5.158;2023-05-09T08:44:44;101229.81;;;16.14;100.00
65329;BME280;51941;52.210;5.158;2023-05-09T08:47:11;101221.50;;;16.10;100.00
65329;BME280;51941;52.210;5.158;2023-05-09T08:49:39;101236.47;;;16.11;100.00
65329;BME280;51941;52.210;5.158;2023-05-09T08:52:06;101215.16;;;16.21;100.00
65329;BME280;51941;52.210;5.158;2023-05-09T08:54:33;101218.34;;;16.18;100.00
65329;BME280;51941;52.210;5.158;2023-05-09T08:57:01;101218.56;;;16.12;100.00
65329;BME280;51941;52.210;5.158;2023-05-09T08:59:30;101214.09;;;16.22;100.00
65329;BME280;51941;52.210;5.158;2023-05-09T09:01:57;101211.69;;;16.26;100.00
65329;BME280;51941;52.210;5.158;2023-05-09T09:04:24;101208.22;;;16.25;100.00
65329;BME280;51941;52.210;5.158;2023-05-09T09:06:52;101205.84;;;16.29;100.00
65329;BME280;51941;52.210;5.158;2023-05-09T09:09:20;101202.88;;;16.25;100.00
65329;BME280;51941;52.210;5.158;2023-05-09T09:11:47;101208.47;;;16.24;100.00
65329;BME280;51941;52.210;5.158;2023-05-09T09:14:20;101203.66;;;16.21;100.00
65329;BME280;51941;52.210;5.158;2023-05-09T09:16:50;101202.06;;;16.25;100.00
65329;BME280;51941;52.210;5.158;2023-05-09T09:19:18;101201.56;;;16.33;100.00
65329;BME280;51941;52.210;5.158;2023-05-09T09:21:47;101194.41;;;16.39;100.00
65329;BME280;51941;52.210;5.158;2023-05-09T09:24:20;101191.50;;;16.45;100.00
65329;BME280;51941;52.210;5.158;2023-05-09T09:26:49;101189.38;;;16.47;100.00
65329;BME280;51941;52.210;5.158;2023-05-09T09:29:16;101182.72;;;16.50;100.00
65329;BME280;51941;52.210;5.158;2023-05-09T09:31:45;101181.13;;;16.59;100.00
65329;BME280;51941;52.210;5.158;2023-05-09T09:34:19;101179.25;;;16.59;100.00
65329;BME280;51941;52.210;5.158;2023-05-09T09:36:46;101179.25;;;16.54;100.00
65329;BME280;51941;52.210;5.158;2023-05-09T09:39:14;101179.53;;;16.58;100.00
65329;BME280;51941;52.210;5.158;2023-05-09T09:41:41;101182.47;;;16.56;100.00
65329;BME280;51941;52.210;5.158;2023-05-09T09:44:10;101182.44;;;16.51;100.00
65329;BME280;51941;52.210;5.158;2023-05-09T09:46:41;101176.81;;;16.53;100.00
65329;BME280;51941;52.210;5.158;2023-05-09T09:49:08;101175.78;;;16.59;100.00
65329;BME280;51941;52.210;5.158;2023-05-09T09:51:36;101176.91;;;16.63;100.00
65329;BME280;51941;52.210;5.158;2023-05-09T09:54:05;101166.69;;;16.50;100.00
65329;BME280;51941;52.210;5.158;2023-05-09T09:56:42;101170.41;;;16.54;100.00
65329;BME280;51941;52.210;5.158;2023-05-09T09:59:10;101167.19;;;16.52;100.00
65329;BME280;51941;52.210;5.158;2023-05-09T10:01:57;101169.88;;;16.52;100.00
65329;BME280;51941;52.210;5.158;2023-05-09T10:04:29;101168.50;;;16.44;100.00
65329;BME280;51941;52.210;5.158;2023-05-09T10:06:59;101169.00;;;16.36;100.00
65329;BME280;51941;52.210;5.158;2023-05-09T10:09:28;101171.69;;;16.36;100.00
65329;BME280;51941;52.210;5.158;2023-05-09T10:11:55;101160.44;;;16.34;100.00
65329;BME280;51941;52.210;5.158;2023-05-09T10:14:23;101165.78;;;16.29;100.00
65329;BME280;51941;52.210;5.158;2023-05-09T10:16:53;101162.09;;;16.40;100.00
65329;BME280;51941;52.210;5.158;2023-05-09T10:19:21;101162.91;;;16.41;100.00
65329;BME280;51941;52.210;5.158;2023-05-09T10:21:50;101160.78;;;16.53;100.00
65329;BME280;51941;52.210;5.158;2023-05-09T10:24:21;101157.84;;;16.54;100.00
65329;BME280;51941;52.210;5.158;2023-05-09T10:26:52;101159.72;;;16.54;100.00
65329;BME280;51941;52.210;5.158;2023-05-09T10:29:24;101160.50;;;16.44;100.00
65329;BME280;51941;52.210;5.158;2023-05-09T10:31:53;101153.22;;;16.35;100.00
65329;BME280;51941;52.210;5.158;2023-05-09T10:34:23;101151.88;;;16.27;100.00
65329;BME280;51941;52.210;5.158;2023-05-09T10:36:51;101156.41;;;16.26;100.00
65329;BME280;51941;52.210;5.158;2023-05-09T10:39:21;101151.06;;;16.21;100.00
65329;BME280;51941;52.210;5.158;2023-05-09T10:41:48;101148.88;;;16.13;100.00
65329;BME280;51941;52.210;5.158;2023-05-09T10:44:15;101146.22;;;16.18;100.00
65329;BME280;51941;52.210;5.158;2023-05-09T10:46:43;101133.66;;;16.19;100.00
65329;BME280;51941;52.210;5.158;2023-05-09T10:49:11;101122.44;;;16.17;100.00
65329;BME280;51941;52.210;5.158;2023-05-09T10:51:38;101126.75;;;16.23;100.00
65329;BME280;51941;52.210;5.158;2023-05-09T10:54:12;101125.97;;;16.27;100.00
65329;BME280;51941;52.210;5.158;2023-05-09T10:56:41;101119.03;;;16.32;100.00
65329;BME280;51941;52.210;5.158;2023-05-09T11:02:12;101117.44;;;16.36;100.00
65329;BME280;51941;52.210;5.158;2023-05-09T11:04:39;101111.25;;;16.20;100.00
65329;BME280;51941;52.210;5.158;2023-05-09T11:07:21;101113.16;;;16.35;100.00
65329;BME280;51941;52.210;5.158;2023-05-09T11:09:50;101110.75;;;16.33;100.00
65329;BME280;51941;52.210;5.158;2023-05-09T11:12:19;101100.09;;;16.43;100.00
65329;BME280;51941;52.210;5.158;2023-05-09T11:14:47;101107.81;;;16.35;100.00
65329;BME280;51941;52.210;5.158;2023-05-09T11:17:26;101098.47;;;16.37;100.00
65329;BME280;51941;52.210;5.158;2023-05-09T11:19:57;101096.91;;;16.46;100.00
65329;BME280;51941;52.210;5.158;2023-05-09T11:22:25;101095.03;;;16.47;100.00
65329;BME280;51941;52.210;5.158;2023-05-09T11:24:59;101090.25;;;16.49;100.00
65329;BME280;51941;52.210;5.158;2023-05-09T11:27:36;101091.56;;;16.46;100.00
65329;BME280;51941;52.210;5.158;2023-05-09T11:30:04;101089.69;;;16.47;100.00
65329;BME280;51941;52.210;5.158;2023-05-09T11:32:34;101080.38;;;16.49;100.00
65329;BME280;51941;52.210;5.158;2023-05-09T11:35:07;101072.88;;;16.51;100.00
65329;BME280;51941;52.210;5.158;2023-05-09T11:37:41;101073.44;;;16.58;100.00
65329;BME280;51941;52.210;5.158;2023-05-09T11:40:11;101070.72;;;16.53;100.00
65329;BME280;51941;52.210;5.158;2023-05-09T11:42:41;101071.81;;;16.52;100.00
65329;BME280;51941;52.210;5.158;2023-05-09T11:45:09;101065.69;;;16.57;100.00
65329;BME280;51941;52.210;5.158;2023-05-09T11:47:36;101069.41;;;16.61;100.00
65329;BME280;51941;52.210;5.158;2023-05-09T11:50:05;101060.88;;;16.59;100.00
65329;BME280;51941;52.210;5.158;2023-05-09T11:52:32;101061.44;;;16.71;100.00
65329;BME280;51941;52.210;5.158;2023-05-09T11:54:59;101058.00;;;16.76;100.00
65329;BME280;51941;52.210;5.158;2023-05-09T11:57:26;101055.56;;;16.74;100.00
65329;BME280;51941;52.210;5.158;2023-05-09T11:59:54;101055.00;;;16.62;100.00
65329;BME280;51941;52.210;5.158;2023-05-09T12:02:21;101049.16;;;16.65;100.00
65329;BME280;51941;52.210;5.158;2023-05-09T12:04:48;101049.69;;;16.67;100.00
65329;BME280;51941;52.210;5.158;2023-05-09T12:07:15;101046.72;;;16.68;100.00
65329;BME280;51941;52.210;5.158;2023-05-09T12:09:43;101038.97;;;16.62;100.00
65329;BME280;51941;52.210;5.158;2023-05-09T12:12:10;101044.03;;;16.58;100.00
65329;BME280;51941;52.210;5.158;2023-05-09T12:14:37;101043.22;;;16.58;100.00
65329;BME280;51941;52.210;5.158;2023-05-09T12:17:06;101037.88;;;16.48;100.00
65329;BME280;51941;52.210;5.158;2023-05-09T12:19:34;101042.16;;;16.59;100.00
65329;BME280;51941;52.210;5.158;2023-05-09T12:22:03;101039.22;;;16.60;100.00
65329;BME280;51941;52.210;5.158;2023-05-09T12:24:34;101030.44;;;16.65;100.00
65329;BME280;51941;52.210;5.158;2023-05-09T12:27:01;101032.03;;;16.71;100.00
65329;BME280;51941;52.210;5.158;2023-05-09T12:29:29;101034.19;;;16.74;100.00
65329;BME280;51941;52.210;5.158;2023-05-09T12:31:56;101033.66;;;16.82;100.00
65329;BME280;51941;52.210;5.158;2023-05-09T12:34:25;101027.50;;;16.82;100.00
65329;BME280;51941;52.210;5.158;2023-05-09T12:36:52;101029.09;;;16.78;100.00
65329;BME280;51941;52.210;5.158;2023-05-09T12:39:19;101024.31;;;16.75;100.00
65329;BME280;51941;52.210;5.158;2023-05-09T12:41:48;101018.94;;;16.70;100.00
65329;BME280;51941;52.210;5.158;2023-05-09T12:44:19;101015.69;;;16.47;100.00
65329;BME280;51941;52.210;5.158;2023-05-09T12:46:55;101021.03;;;16.52;100.00
65329;BME280;51941;52.210;5.158;2023-05-09T12:49:22;101013.00;;;16.52;100.00